sensor_id;sensor_type;location;lat;lon;timestamp;pressure;altitude;pressure_sealevel;temperature;humidity
51299;BME280;37382;45.192;9.790;2023-12-29T00:01:37;102100.81;;;8.00;100.00
51299;BME280;37382;45.192;9.790;2023-12-29T00:04:04;102105.00;;;7.95;100.00
51299;BME280;37382;45.192;9.790;2023-12-29T00:06:31;102110.28;;;7.87;100.00
51299;BME280;37382;45.192;9.790;2023-12-29T00:09:00;102107.13;;;7.91;100.00
51299;BME280;37382;45.192;9.790;2023-12-29T00:11:27;102106.56;;;7.88;100.00
51299;BME280;37382;45.192;9.790;2023-12-29T00:13:55;102101.00;;;7.89;100.00
51299;BME280;37382;45.192;9.790;2023-12-29T00:16:22;102103.00;;;7.87;100.00
51299;BME280;37382;45.192;9.790;2023-12-29T00:18:50;102107.84;;;7.83;100.00
51299;BME280;37382;45.192;9.790;2023-12-29T00:21:18;102108.16;;;7.90;100.00
51299;BME280;37382;45.192;9.790;2023-12-29T00:23:47;102099.88;;;7.82;100.00
51299;BME280;37382;45.192;9.790;2023-12-29T00:26:18;102100.16;;;7.79;100.00
51299;BME280;37382;45.192;9.790;2023-12-29T00:28:54;102104.13;;;7.94;100.00
51299;BME280;37382;45.192;9.790;2023-12-29T00:31:22;102097.81;;;8.13;100.00
51299;BME280;37382;45.192;9.790;2023-12-29T00:33:51;102093.38;;;8.12;100.00
51299;BME280;37382;45.192;9.790;2023-12-29T00:36:20;102087.56;;;8.07;100.00
51299;BME280;37382;45.192;9.790;2023-12-29T00:38:49;102089.97;;;8.00;100.00
51299;BME280;37382;45.192;9.790;2023-12-29T00:41:17;102081.00;;;8.37;100.00
51299;BME280;37382;45.192;9.790;2023-12-29T00:43:45;102086.41;;;8.47;100.00
51299;BME280;37382;45.192;9.790;2023-12-29T00:46:14;102085.56;;;8.37;100.00
51299;BME280;37382;45.192;9.790;2023-12-29T00:48:43;102087.34;;;8.18;100.00
51299;BME280;37382;45.192;9.790;2023-12-29T00:51:11;102084.03;;;8.25;100.00
51299;BME280;37382;45.192;9.790;2023-12-29T00:53:38;102086.59;;;8.36;100.00
51299;BME280;37382;45.192;9.790;2023-12-29T00:56:10;102090.63;;;8.22;100.00
51299;BME280;37382;45.192;9.790;2023-12-29T00:58:39;102086.97;;;8.13;100.00
51299;BME280;37382;45.192;9.790;2023-12-29T01:01:07;102078.63;;;8.25;100.00
51299;BME280;37382;45.192;9.790;2023-12-29T01:03:35;102077.94;;;8.13;100.00
51299;BME280;37382;45.192;9.790;2023-12-29T01:06:03;102083.50;;;8.21;100.00
51299;BME280;37382;45.192;9.790;2023-12-29T01:08:31;102080.84;;;8.39;100.00
51299;BME280;37382;45.192;9.790;2023-12-29T01:10:58;102062.69;;;8.49;100.00
51299;BME280;37382;45.192;9.790;2023-12-29T01:13:26;102070.81;;;8.49;100.00
51299;BME280;37382;45.192;9.790;2023-12-29T01:15:53;102074.03;;;8.35;100.00
51299;BME280;37382;45.192;9.790;2023-12-29T01:18:21;102070.63;;;8.33;100.00
51299;BME280;37382;45.192;9.790;2023-12-29T01:20:48;102077.84;;;8.42;100.00
51299;BME280;37382;45.192;9.790;2023-12-29T01:23:15;102078.38;;;8.18;100.00
51299;BME280;37382;45.192;9.790;2023-12-29T01:25:44;102078.22;;;8.19;100.00
51299;BME280;37382;45.192;9.790;2023-12-29T01:28:11;102074.03;;;8.25;100.00
51299;BME280;37382;45.192;9.790;2023-12-29T01:30:39;102076.66;;;8.54;100.00
51299;BME280;37382;45.192;9.790;2023-12-29T01:33:07;102079.53;;;8.43;100.00
51299;BME280;37382;45.192;9.790;2023-12-29T01:35:35;102074.63;;;8.29;100.00
51299;BME280;37382;45.192;9.790;2023-12-29T01:38:02;102078.75;;;8.33;100.00
51299;BME280;37382;45.192;9.790;2023-12-29T01:40:30;102074.66;;;8.19;100.00
51299;BME280;37382;45.192;9.790;2023-12-29T01:42:57;102071.00;;;8.10;100.00
51299;BME280;37382;45.192;9.790;2023-12-29T01:45:25;102080.38;;;8.16;100.00
51299;BME280;37382;45.192;9.790;2023-12-29T01:47:53;102077.06;;;8.22;100.00
51299;BME280;37382;45.192;9.790;2023-12-29T01:50:21;102079.06;;;8.20;100.00
51299;BME280;37382;45.192;9.790;2023-12-29T01:52:51;102074.41;;;8.12;100.00
51299;BME280;37382;45.192;9.790;2023-12-29T01:55:20;102082.13;;;8.07;100.00
51299;BME280;37382;45.192;9.790;2023-12-29T01:57:49;102076.72;;;8.07;100.00
51299;BME280;37382;45.192;9.790;2023-12-29T02:00:18;102077.94;;;8.13;100.00
51299;BME280;37382;45.192;9.790;2023-12-29T02:02:46;102072.66;;;8.21;100.00
51299;BME280;37382;45.192;9.790;2023-12-29T02:05:15;102070.03;;;8.29;100.00
51299;BME280;37382;45.192;9.790;2023-12-29T02:07:44;102054.00;;;8.18;100.00
51299;BME280;37382;45.192;9.790;2023-12-29T02:10:12;102059.34;;;8.28;100.00
51299;BME280;37382;45.192;9.790;2023-12-29T02:12:45;102061.69;;;8.13;100.00
51299;BME280;37382;45.192;9.790;2023-12-29T02:15:13;102075.16;;;8.05;100.00
51299;BME280;37382;45.192;9.790;2023-12-29T02:17:48;102065.00;;;8.07;100.00
51299;BME280;37382;45.192;9.790;2023-12-29T02:20:19;102056.38;;;7.93;100.00
51299;BME280;37382;45.192;9.790;2023-12-29T02:22:46;102048.94;;;7.86;100.00
51299;BME280;37382;45.192;9.790;2023-12-29T02:25:14;102045.69;;;7.92;100.00
51299;BME280;37382;45.192;9.790;2023-12-29T02:27:52;102032.75;;;7.76;100.00
51299;BME280;37382;45.192;9.790;2023-12-29T02:30:34;102027.56;;;7.82;100.00
51299;BME280;37382;45.192;9.790;2023-12-29T02:33:06;102023.88;;;7.83;100.00
51299;BME280;37382;45.192;9.790;2023-12-29T02:35:39;102018.59;;;7.82;100.00
51299;BME280;37382;45.192;9.790;2023-12-29T02:38:07;102017.03;;;7.79;100.00
51299;BME280;37382;45.192;9.790;2023-12-29T02:40:35;102004.91;;;7.83;100.00
51299;BME280;37382;45.192;9.790;2023-12-29T02:43:02;102011.84;;;7.96;100.00
51299;BME280;37382;45.192;9.790;2023-12-29T02:45:30;102006.47;;;7.86;100.00
51299;BME280;37382;45.192;9.790;2023-12-29T02:47:58;102002.91;;;7.86;100.00
51299;BME280;37382;45.192;9.790;2023-12-29T02:50:26;102001.31;;;7.93;100.00
51299;BME280;37382;45.192;9.790;2023-12-29T02:52:54;102004.13;;;8.01;100.00
51299;BME280;37382;45.192;9.790;2023-12-29T02:55:21;102003.31;;;7.91;100.00
51299;BME280;37382;45.192;9.790;2023-12-29T02:57:49;102004.81;;;7.75;100.00
51299;BME280;37382;45.192;9.790;2023-12-29T03:00:16;101989.94;;;7.89;100.00
51299;BME280;37382;45.192;9.790;2023-12-29T03:02:44;101988.47;;;7.95;100.00
51299;BME280;37382;45.192;9.790;2023-12-29T03:05:12;101988.06;;;7.90;100.00
51299;BME280;37382;45.192;9.790;2023-12-29T03:07:40;101985.63;;;7.96;100.00
51299;BME280;37382;45.192;9.790;2023-12-29T03:10:08;101982.47;;;8.01;100.00
51299;BME280;37382;45.192;9.790;2023-12-29T03:12:36;101984.16;;;8.02;100.00
51299;BME280;37382;45.192;9.790;2023-12-29T03:15:03;101986.47;;;7.97;100.00
51299;BME280;37382;45.192;9.790;2023-12-29T03:17:31;101990.16;;;7.96;100.00
51299;BME280;37382;45.192;9.790;2023-12-29T03:19:59;101991.13;;;8.05;100.00
51299;BME280;37382;45.192;9.790;2023-12-29T03:22:27;101993.84;;;8.05;100.00
51299;BME280;37382;45.192;9.790;2023-12-29T03:24:55;101988.19;;;7.98;100.00
51299;BME280;37382;45.192;9.790;2023-12-29T03:27:22;101988.03;;;7.99;100.00
51299;BME280;37382;45.192;9.790;2023-12-29T03:29:49;101994.22;;;8.10;100.00
51299;BME280;37382;45.192;9.790;2023-12-29T03:32:17;101990.88;;;7.98;100.00
51299;BME280;37382;45.192;9.790;2023-12-29T03:34:45;101985.47;;;7.98;100.00
51299;BME280;37382;45.192;9.790;2023-12-29T03:37:12;101975.03;;;8.03;100.00
51299;BME280;37382;45.192;9.790;2023-12-29T03:39:40;101975.72;;;8.33;100.00
51299;BME280;37382;45.192;9.790;2023-12-29T03:42:08;101967.78;;;8.22;100.00
51299;BME280;37382;45.192;9.790;2023-12-29T03:44:35;101963.88;;;8.06;100.00
51299;BME280;37382;45.192;9.790;2023-12-29T03:47:03;101955.06;;;8.04;100.00
51299;BME280;37382;45.192;9.790;2023-12-29T03:49:30;101963.19;;;8.04;100.00
51299;BME280;37382;45.192;9.790;2023-12-29T03:51:58;101959.25;;;8.44;100.00
51299;BME280;37382;45.192;9.790;2023-12-29T03:54:25;101958.69;;;8.41;100.00
51299;BME280;37382;45.192;9.790;2023-12-29T03:56:53;101949.97;;;8.37;100.00
51299;BME280;37382;45.192;9.790;2023-12-29T03:59:21;101956.81;;;8.41;100.00
51299;BME280;37382;45.192;9.790;2023-12-29T04:01:48;101941.50;;;8.22;100.00
51299;BME280;37382;45.192;9.790;2023-12-29T04:04:16;101943.19;;;8.05;100.00
51299;BME280;37382;45.192;9.790;2023-12-29T04:06:44;101939.75;;;8.31;100.00
51299;BME280;37382;45.192;9.790;2023-12-29T04:09:12;101945.00;;;8.14;100.00
51299;BME280;37382;45.192;9.790;2023-12-29T04:11:39;101940.28;;;8.16;100.00
51299;BME280;37382;45.192;9.790;2023-12-29T04:14:07;101937.13;;;8.21;100.00
51299;BME280;37382;45.192;9.790;2023-12-29T04:16:36;101930.81;;;8.20;100.00
51299;BME280;37382;45.192;9.790;2023-12-29T04:19:05;101936.88;;;8.32;100.00
51299;BME280;37382;45.192;9.790;2023-12-29T04:21:33;101942.25;;;8.42;100.00
51299;BME280;37382;45.192;9.790;2023-12-29T04:24:00;101933.50;;;8.30;100.00
51299;BME280;37382;45.192;9.790;2023-12-29T04:26:27;101942.59;;;8.11;100.00
51299;BME280;37382;45.192;9.790;2023-12-29T04:28:55;101935.22;;;8.04;100.00
51299;BME280;37382;45.192;9.790;2023-12-29T04:31:22;101940.53;;;8.23;100.00
51299;BME280;37382;45.192;9.790;2023-12-29T04:33:49;101934.44;;;8.11;100.00
51299;BME280;37382;45.192;9.790;2023-12-29T04:36:17;101933.03;;;8.35;100.00
51299;BME280;37382;45.192;9.790;2023-12-29T04:38:45;101932.13;;;8.44;100.00
51299;BME280;37382;45.192;9.790;2023-12-29T04:41:12;101933.72;;;8.37;100.00
51299;BME280;37382;45.192;9.790;2023-12-29T04:43:40;101924.00;;;8.44;100.00
51299;BME280;37382;45.192;9.790;2023-12-29T04:46:08;101926.31;;;8.57;100.00
51299;BME280;37382;45.192;9.790;2023-12-29T04:48:35;101919.88;;;8.58;100.00
51299;BME280;37382;45.192;9.790;2023-12-29T04:51:03;101922.28;;;8.61;100.00
51299;BME280;37382;45.192;9.790;2023-12-29T04:53:30;101919.66;;;8.51;100.00
51299;BME280;37382;45.192;9.790;2023-12-29T04:55:57;101912.88;;;8.19;100.00
51299;BME280;37382;45.192;9.790;2023-12-29T04:58:25;101916.44;;;8.38;100.00
51299;BME280;37382;45.192;9.790;2023-12-29T05:00:52;101915.81;;;8.26;100.00
51299;BME280;37382;45.192;9.790;2023-12-29T05:03:20;101924.78;;;8.27;100.00
51299;BME280;37382;45.192;9.790;2023-12-29T05:05:47;101921.09;;;8.28;100.00
51299;BME280;37382;45.192;9.790;2023-12-29T05:08:15;101921.81;;;8.30;100.00
51299;BME280;37382;45.192;9.790;2023-12-29T05:10:42;101920.41;;;8.26;100.00
51299;BME280;37382;45.192;9.790;2023-12-29T05:13:10;101926.31;;;8.39;100.00
51299;BME280;37382;45.192;9.790;2023-12-29T05:15:39;101939.44;;;8.44;100.00
51299;BME280;37382;45.192;9.790;2023-12-29T05:18:06;101930.22;;;8.27;100.00
51299;BME280;37382;45.192;9.790;2023-12-29T05:20:34;101926.88;;;8.61;100.00
51299;BME280;37382;45.192;9.790;2023-12-29T05:23:01;101931.66;;;8.67;100.00
51299;BME280;37382;45.192;9.790;2023-12-29T05:25:28;101933.28;;;8.60;100.00
51299;BME280;37382;45.192;9.790;2023-12-29T05:27:56;101937.47;;;8.72;100.00
51299;BME280;37382;45.192;9.790;2023-12-29T05:30:24;101933.44;;;8.76;100.00
51299;BME280;37382;45.192;9.790;2023-12-29T05:32:53;101926.09;;;8.68;100.00
51299;BME280;37382;45.192;9.790;2023-12-29T05:35:21;101925.81;;;8.80;100.00
51299;BME280;37382;45.192;9.790;2023-12-29T05:37:48;101943.63;;;8.74;100.00
51299;BME280;37382;45.192;9.790;2023-12-29T05:40:17;101936.38;;;8.83;100.00
51299;BME280;37382;45.192;9.790;2023-12-29T05:42:44;101947.69;;;8.78;100.00
51299;BME280;37382;45.192;9.790;2023-12-29T05:45:16;101945.22;;;8.67;100.00
51299;BME280;37382;45.192;9.790;2023-12-29T05:47:43;101935.75;;;8.35;100.00
51299;BME280;37382;45.192;9.790;2023-12-29T05:50:11;101942.41;;;8.41;100.00
51299;BME280;37382;45.192;9.790;2023-12-29T05:52:38;101946.78;;;8.24;100.00
51299;BME280;37382;45.192;9.790;2023-12-29T05:55:06;101951.31;;;8.33;100.00
51299;BME280;37382;45.192;9.790;2023-12-29T05:57:33;101939.97;;;8.47;100.00
51299;BME280;37382;45.192;9.790;2023-12-29T06:00:01;101948.91;;;8.30;100.00
51299;BME280;37382;45.192;9.790;2023-12-29T06:02:38;101952.13;;;8.15;100.00
51299;BME280;37382;45.192;9.790;2023-12-29T06:05:06;101941.44;;;8.14;100.00
51299;BME280;37382;45.192;9.790;2023-12-29T06:07:34;101946.06;;;8.04;100.00
51299;BME280;37382;45.192;9.790;2023-12-29T06:10:01;101938.06;;;8.02;100.00
51299;BME280;37382;45.192;9.790;2023-12-29T06:12:28;101951.03;;;8.08;100.00
51299;BME280;37382;45.192;9.790;2023-12-29T06:14:56;101953.66;;;8.00;100.00
51299;BME280;37382;45.192;9.790;2023-12-29T06:17:23;101944.22;;;8.04;100.00
51299;BME280;37382;45.192;9.790;2023-12-29T06:19:50;101946.06;;;8.31;100.00
51299;BME280;37382;45.192;9.790;2023-12-29T06:22:18;101949.97;;;8.37;100.00
51299;BME280;37382;45.192;9.790;2023-12-29T06:24:46;101949.50;;;8.24;100.00
51299;BME280;37382;45.192;9.790;2023-12-29T06:27:13;101945.63;;;8.26;100.00
51299;BME280;37382;45.192;9.790;2023-12-29T06:29:41;101936.00;;;8.14;100.00
51299;BME280;37382;45.192;9.790;2023-12-29T06:32:09;101941.34;;;8.06;100.00
51299;BME280;37382;45.192;9.790;2023-12-29T06:34:36;101937.09;;;8.03;100.00
51299;BME280;37382;45.192;9.790;2023-12-29T06:37:04;101941.91;;;8.09;100.00
51299;BME280;37382;45.192;9.790;2023-12-29T06:39:31;101943.47;;;8.12;100.00
51299;BME280;37382;45.192;9.790;2023-12-29T06:42:00;101939.25;;;8.17;100.00
51299;BME280;37382;45.192;9.790;2023-12-29T06:44:27;101938.44;;;8.35;100.00
51299;BME280;37382;45.192;9.790;2023-12-29T06:46:54;101944.56;;;8.37;100.00
51299;BME280;37382;45.192;9.790;2023-12-29T06:49:22;101950.19;;;8.08;100.00
51299;BME280;37382;45.192;9.790;2023-12-29T06:51:51;101949.38;;;7.97;100.00
51299;BME280;37382;45.192;9.790;2023-12-29T06:54:18;101940.03;;;8.10;100.00
51299;BME280;37382;45.192;9.790;2023-12-29T06:56:47;101952.78;;;8.27;100.00
51299;BME280;37382;45.192;9.790;2023-12-29T06:59:15;101947.53;;;7.98;100.00
51299;BME280;37382;45.192;9.790;2023-12-29T07:01:43;101940.00;;;7.92;100.00
51299;BME280;37382;45.192;9.790;2023-12-29T07:04:11;101940.28;;;7.89;100.00
51299;BME280;37382;45.192;9.790;2023-12-29T07:06:38;101942.00;;;7.90;100.00
51299;BME280;37382;45.192;9.790;2023-12-29T07:09:06;101944.56;;;7.91;100.00
51299;BME280;37382;45.192;9.790;2023-12-29T07:11:35;101946.28;;;7.92;100.00
51299;BME280;37382;45.192;9.790;2023-12-29T07:14:03;101943.19;;;8.05;100.00
51299;BME280;37382;45.192;9.790;2023-12-29T07:16:31;101953.44;;;8.11;100.00
51299;BME280;37382;45.192;9.790;2023-12-29T07:18:58;101950.31;;;8.06;100.00
51299;BME280;37382;45.192;9.790;2023-12-29T07:21:26;101950.09;;;8.17;100.00
51299;BME280;37382;45.192;9.790;2023-12-29T07:23:53;101948.72;;;8.13;100.00
51299;BME280;37382;45.192;9.790;2023-12-29T07:26:21;101952.34;;;8.04;100.00
51299;BME280;37382;45.192;9.790;2023-12-29T07:28:48;101947.63;;;8.06;100.00
51299;BME280;37382;45.192;9.790;2023-12-29T07:31:21;101949.25;;;8.17;100.00
51299;BME280;37382;45.192;9.790;2023-12-29T07:33:49;101955.19;;;8.30;100.00
51299;BME280;37382;45.192;9.790;2023-12-29T07:36:17;101955.94;;;8.23;100.00
51299;BME280;37382;45.192;9.790;2023-12-29T07:38:44;101955.53;;;8.17;100.00
51299;BME280;37382;45.192;9.790;2023-12-29T07:41:12;101957.00;;;8.12;100.00
51299;BME280;37382;45.192;9.790;2023-12-29T07:43:39;101955.53;;;8.17;100.00
51299;BME280;37382;45.192;9.790;2023-12-29T07:46:07;101959.38;;;8.43;100.00
51299;BME280;37382;45.192;9.790;2023-12-29T07:48:35;101967.16;;;8.28;100.00
51299;BME280;37382;45.192;9.790;2023-12-29T07:51:05;101959.31;;;8.07;100.00
51299;BME280;37382;45.192;9.790;2023-12-29T07:53:33;101962.28;;;8.13;100.00
51299;BME280;37382;45.192;9.790;2023-12-29T07:56:01;101976.09;;;8.38;100.00
51299;BME280;37382;45.192;9.790;2023-12-29T07:58:28;101961.53;;;8.39;100.00
51299;BME280;37382;45.192;9.790;2023-12-29T08:00:56;101970.56;;;8.58;100.00
51299;BME280;37382;45.192;9.790;2023-12-29T08:03:23;101979.72;;;8.29;100.00
51299;BME280;37382;45.192;9.790;2023-12-29T08:05:51;101977.00;;;8.57;100.00
51299;BME280;37382;45.192;9.790;2023-12-29T08:08:18;101985.94;;;8.67;100.00
51299;BME280;37382;45.192;9.790;2023-12-29T08:10:46;101985.78;;;8.68;100.00
51299;BME280;37382;45.192;9.790;2023-12-29T08:13:13;101986.63;;;8.41;100.00
51299;BME280;37382;45.192;9.790;2023-12-29T08:15:41;101985.28;;;8.55;100.00
51299;BME280;37382;45.192;9.790;2023-12-29T08:18:10;101994.84;;;8.77;100.00
51299;BME280;37382;45.192;9.790;2023-12-29T08:20:38;102000.63;;;8.64;100.00
51299;BME280;37382;45.192;9.790;2023-12-29T08:23:05;101997.13;;;8.54;100.00
51299;BME280;37382;45.192;9.790;2023-12-29T08:25:32;101996.66;;;8.41;100.00
51299;BME280;37382;45.192;9.790;2023-12-29T08:28:00;101998.56;;;8.30;100.00
51299;BME280;37382;45.192;9.790;2023-12-29T08:30:28;101996.75;;;8.49;100.00
51299;BME280;37382;45.192;9.790;2023-12-29T08:32:55;101999.50;;;8.39;100.00
51299;BME280;37382;45.192;9.790;2023-12-29T08:35:23;101984.44;;;8.27;100.00
51299;BME280;37382;45.192;9.790;2023-12-29T08:37:51;101990.41;;;8.58;100.00
51299;BME280;37382;45.192;9.790;2023-12-29T08:40:18;101990.88;;;8.71;100.00
51299;BME280;37382;45.192;9.790;2023-12-29T08:42:47;101995.00;;;8.76;100.00
51299;BME280;37382;45.192;9.790;2023-12-29T08:45:14;101997.25;;;8.62;100.00
51299;BME280;37382;45.192;9.790;2023-12-29T08:47:41;101995.69;;;8.78;100.00
51299;BME280;37382;45.192;9.790;2023-12-29T08:50:09;101999.97;;;8.80;100.00
51299;BME280;37382;45.192;9.790;2023-12-29T08:52:37;102014.06;;;9.02;100.00
51299;BME280;37382;45.192;9.790;2023-12-29T08:55:04;102011.88;;;9.23;100.00
51299;BME280;37382;45.192;9.790;2023-12-29T08:57:32;102020.63;;;9.17;100.00
51299;BME280;37382;45.192;9.790;2023-12-29T08:59:59;102016.47;;;9.05;100.00
51299;BME280;37382;45.192;9.790;2023-12-29T09:02:27;102012.91;;;8.86;100.00
51299;BME280;37382;45.192;9.790;2023-12-29T09:04:54;102021.66;;;8.62;100.00
51299;BME280;37382;45.192;9.790;2023-12-29T09:07:22;102017.06;;;8.63;100.00
51299;BME280;37382;45.192;9.790;2023-12-29T09:09:49;102009.94;;;8.62;100.00
51299;BME280;37382;45.192;9.790;2023-12-29T09:12:17;102009.63;;;8.83;100.00
51299;BME280;37382;45.192;9.790;2023-12-29T09:14:44;102012.06;;;8.68;100.00
51299;BME280;37382;45.192;9.790;2023-12-29T09:17:12;102024.69;;;8.77;100.00
51299;BME280;37382;45.192;9.790;2023-12-29T09:19:39;102024.69;;;8.77;100.00
51299;BME280;37382;45.192;9.790;2023-12-29T09:22:07;102025.91;;;8.83;100.00
51299;BME280;37382;45.192;9.790;2023-12-29T09:24:35;102029.22;;;8.59;100.00
51299;BME280;37382;45.192;9.790;2023-12-29T09:27:02;102029.06;;;8.60;100.00
51299;BME280;37382;45.192;9.790;2023-12-29T09:29:30;102034.09;;;8.55;100.00
51299;BME280;37382;45.192;9.790;2023-12-29T09:31:58;102029.63;;;8.64;100.00
51299;BME280;37382;45.192;9.790;2023-12-29T09:34:25;102028.59;;;8.65;100.00
51299;BME280;37382;45.192;9.790;2023-12-29T09:36:53;102026.16;;;8.71;100.00
51299;BME280;37382;45.192;9.790;2023-12-29T09:39:20;102029.78;;;8.62;100.00
51299;BME280;37382;45.192;9.790;2023-12-29T09:41:51;102034.78;;;8.85;100.00
51299;BME280;37382;45.192;9.790;2023-12-29T09:44:20;102029.34;;;8.85;100.00
51299;BME280;37382;45.192;9.790;2023-12-29T09:46:49;102031.75;;;8.88;100.00
51299;BME280;37382;45.192;9.790;2023-12-29T09:49:21;102031.97;;;8.95;100.00
51299;BME280;37382;45.192;9.790;2023-12-29T09:51:49;102028.03;;;8.71;100.00
51299;BME280;37382;45.192;9.790;2023-12-29T09:54:17;102021.88;;;9.05;100.00
51299;BME280;37382;45.192;9.790;2023-12-29T09:56:45;102028.72;;;9.09;100.00
51299;BME280;37382;45.192;9.790;2023-12-29T09:59:13;102028.94;;;8.80;100.00
51299;BME280;37382;45.192;9.790;2023-12-29T10:01:42;102020.03;;;8.87;100.00
51299;BME280;37382;45.192;9.790;2023-12-29T10:04:12;102018.19;;;8.88;100.00
51299;BME280;37382;45.192;9.790;2023-12-29T10:06:43;102019.31;;;8.67;100.00
51299;BME280;37382;45.192;9.790;2023-12-29T10:09:17;102022.75;;;8.69;100.00
51299;BME280;37382;45.192;9.790;2023-12-29T10:11:48;102016.44;;;8.69;100.00
51299;BME280;37382;45.192;9.790;2023-12-29T10:14:24;102013.53;;;8.80;100.00
51299;BME280;37382;45.192;9.790;2023-12-29T10:17:02;102017.25;;;8.79;100.00
51299;BME280;37382;45.192;9.790;2023-12-29T10:19:47;102020.19;;;8.86;100.00
51299;BME280;37382;45.192;9.790;2023-12-29T10:22:27;102019.63;;;9.18;100.00
51299;BME280;37382;45.192;9.790;2023-12-29T10:24:57;102014.44;;;9.51;100.00
51299;BME280;37382;45.192;9.790;2023-12-29T10:27:25;102022.34;;;9.18;100.00
51299;BME280;37382;45.192;9.790;2023-12-29T10:29:53;102032.84;;;9.39;100.00
51299;BME280;37382;45.192;9.790;2023-12-29T10:32:21;102019.00;;;9.24;100.00
51299;BME280;37382;45.192;9.790;2023-12-29T10:34:49;102023.28;;;9.09;100.00
51299;BME280;37382;45.192;9.790;2023-12-29T10:37:22;102019.72;;;9.08;100.00
51299;BME280;37382;45.192;9.790;2023-12-29T10:39:56;102023.19;;;9.01;100.00
51299;BME280;37382;45.192;9.790;2023-12-29T10:42:24;102012.44;;;9.09;100.00
51299;BME280;37382;45.192;9.790;2023-12-29T10:45:08;102018.09;;;8.98;100.00
51299;BME280;37382;45.192;9.790;2023-12-29T10:47:37;102009.25;;;8.96;100.00
51299;BME280;37382;45.192;9.790;2023-12-29T10:50:05;102007.59;;;9.03;100.00
51299;BME280;37382;45.192;9.790;2023-12-29T10:52:33;102005.28;;;9.26;100.00
51299;BME280;37382;45.192;9.790;2023-12-29T10:55:09;101998.22;;;9.15;100.00
51299;BME280;37382;45.192;9.790;2023-12-29T10:57:39;101995.53;;;8.97;100.00
51299;BME280;37382;45.192;9.790;2023-12-29T11:00:08;101991.03;;;9.06;100.00
51299;BME280;37382;45.192;9.790;2023-12-29T11:02:36;101985.84;;;8.95;100.00
51299;BME280;37382;45.192;9.790;2023-12-29T11:07:36;101982.66;;;8.99;100.00
51299;BME280;37382;45.192;9.790;2023-12-29T11:10:06;101984.06;;;8.85;100.00
51299;BME280;37382;45.192;9.790;2023-12-29T11:12:35;101977.53;;;8.96;100.00
51299;BME280;37382;45.192;9.790;2023-12-29T11:15:04;101977.84;;;8.93;100.00
51299;BME280;37382;45.192;9.790;2023-12-29T11:17:34;101980.94;;;8.98;100.00
51299;BME280;37382;45.192;9.790;2023-12-29T11:20:03;101979.41;;;8.96;100.00
51299;BME280;37382;45.192;9.790;2023-12-29T11:22:32;101980.03;;;8.89;100.00
51299;BME280;37382;45.192;9.790;2023-12-29T11:25:00;101966.16;;;8.93;100.00
51299;BME280;37382;45.192;9.790;2023-12-29T11:27:29;101959.91;;;9.18;100.00
51299;BME280;37382;45.192;9.790;2023-12-29T11:29:58;101960.41;;;9.48;100.00
51299;BME280;37382;45.192;9.790;2023-12-29T11:32:31;101955.75;;;9.32;100.00
51299;BME280;37382;45.192;9.790;2023-12-29T11:35:11;101946.50;;;9.43;100.00
51299;BME280;37382;45.192;9.790;2023-12-29T11:41:05;101951.22;;;9.67;100.00
51299;BME280;37382;45.192;9.790;2023-12-29T11:43:36;101947.44;;;9.60;100.00
51299;BME280;37382;45.192;9.790;2023-12-29T11:46:04;101947.19;;;9.79;100.00
51299;BME280;37382;45.192;9.790;2023-12-29T11:48:56;101941.69;;;10.06;100.00
51299;BME280;37382;45.192;9.790;2023-12-29T11:51:42;101928.06;;;9.55;100.00
51299;BME280;37382;45.192;9.790;2023-12-29T11:54:24;101927.84;;;9.22;100.00
51299;BME280;37382;45.192;9.790;2023-12-29T11:56:53;101926.13;;;9.21;100.00
51299;BME280;37382;45.192;9.790;2023-12-29T11:59:23;101912.78;;;9.28;100.00
51299;BME280;37382;45.192;9.790;2023-12-29T12:04:41;101909.44;;;9.34;100.00
51299;BME280;37382;45.192;9.790;2023-12-29T12:12:47;101904.56;;;9.46;100.00
51299;BME280;37382;45.192;9.790;2023-12-29T12:18:00;101895.56;;;9.45;100.00
51299;BME280;37382;45.192;9.790;2023-12-29T12:20:28;101888.88;;;9.31;100.00
51299;BME280;37382;45.192;9.790;2023-12-29T12:23:02;101892.19;;;9.17;100.00
51299;BME280;37382;45.192;9.790;2023-12-29T12:25:32;101888.41;;;9.10;100.00
51299;BME280;37382;45.192;9.790;2023-12-29T12:28:09;101891.13;;;9.10;100.00
51299;BME280;37382;45.192;9.790;2023-12-29T12:30:37;101888.88;;;9.05;100.00
51299;BME280;37382;45.192;9.790;2023-12-29T12:33:05;101882.81;;;9.11;100.00
51299;BME280;37382;45.192;9.790;2023-12-29T12:35:34;101883.50;;;9.13;100.00
51299;BME280;37382;45.192;9.790;2023-12-29T12:38:12;101869.38;;;9.36;100.00
51299;BME280;37382;45.192;9.790;2023-12-29T12:40:40;101868.91;;;9.14;100.00
51299;BME280;37382;45.192;9.790;2023-12-29T12:43:13;101859.38;;;9.10;100.00
51299;BME280;37382;45.192;9.790;2023-12-29T12:45:46;101860.88;;;9.31;100.00
51299;BME280;37382;45.192;9.790;2023-12-29T12:48:23;101862.56;;;9.32;100.00
51299;BME280;37382;45.192;9.790;2023-12-29T12:50:55;101859.31;;;9.28;100.00
51299;BME280;37382;45.192;9.790;2023-12-29T12:53:24;101859.00;;;9.31;100.00
51299;BME280;37382;45.192;9.790;2023-12-29T12:55:52;101863.84;;;9.46;100.00
51299;BME280;37382;45.192;9.790;2023-12-29T12:58:21;101865.56;;;9.55;100.00
51299;BME280;37382;45.192;9.790;2023-12-29T13:00:50;101866.16;;;9.40;100.00
51299;BME280;37382;45.192;9.790;2023-12-29T13:03:21;101864.75;;;9.28;100.00
51299;BME280;37382;45.192;9.790;2023-12-29T13:05:50;101857.34;;;9.38;100.00
51299;BME280;37382;45.192;9.790;2023-12-29T13:08:18;101860.22;;;9.37;100.00
51299;BME280;37382;45.192;9.790;2023-12-29T13:11:01;101862.50;;;9.15;100.00
51299;BME280;37382;45.192;9.790;2023-12-29T13:13:36;101856.56;;;9.20;100.00
51299;BME280;37382;45.192;9.790;2023-12-29T13:16:04;101859.59;;;9.51;100.00